Time;durP1;ratioP1;P1;durP2;ratioP2;P2;SDS_P1;SDS_P2;PMS_P1;PMS_P2;Temp;Humidity;BMP_temperature;BMP_pressure;BME280_temperature;BME280_humidity;BME280_pressure;Samples;Min_cycle;Max_cycle;Signal;HPM_P1;HPM_P2
2021/05/09 00:02:09;;;;;;;8.18;5.25;;;12.70;99.90;;;;;;5092635;28;20072;-77
2021/05/09 00:04:35;;;;;;;6.43;5.75;;;12.70;99.90;;;;;;5092127;28;20024;-78
2021/05/09 00:07:01;;;;;;;7.80;6.10;;;12.70;99.90;;;;;;5095877;28;20036;-77
2021/05/09 00:09:26;;;;;;;7.65;5.70;;;12.70;99.90;;;;;;5095022;28;20107;-76
2021/05/09 00:11:52;;;;;;;7.18;6.45;;;12.70;99.90;;;;;;5100766;28;20016;-78
2021/05/09 00:14:17;;;;;;;7.50;4.97;;;12.70;99.90;;;;;;5097939;28;20055;-78
2021/05/09 00:16:43;;;;;;;7.22;4.95;;;12.70;99.90;;;;;;5092454;28;20024;-77
2021/05/09 00:19:09;;;;;;;10.30;5.38;;;12.70;99.90;;;;;;5092700;28;20021;-77
2021/05/09 00:21:34;;;;;;;8.00;4.97;;;12.70;99.90;;;;;;5091818;28;20052;-77
2021/05/09 00:24:00;;;;;;;6.70;5.07;;;12.70;99.90;;;;;;5091416;28;20021;-77
2021/05/09 00:26:26;;;;;;;5.45;4.75;;;12.60;99.90;;;;;;5091063;28;20027;-77
2021/05/09 00:28:51;;;;;;;9.75;5.88;;;12.60;99.90;;;;;;5091611;28;20023;-77
2021/05/09 00:31:17;;;;;;;6.22;5.13;;;12.60;99.90;;;;;;5092098;28;20103;-78
2021/05/09 00:33:43;;;;;;;10.27;5.13;;;12.50;99.90;;;;;;5092707;28;20409;-77
2021/05/09 00:36:08;;;;;;;5.72;5.13;;;12.60;99.90;;;;;;5091968;28;20036;-77
2021/05/09 00:38:34;;;;;;;6.55;5.30;;;12.50;99.90;;;;;;5092254;28;20100;-77
2021/05/09 00:41:02;;;;;;;6.68;5.15;;;12.50;99.90;;;;;;5092001;28;20024;-78
2021/05/09 00:43:28;;;;;;;9.27;5.70;;;12.50;99.90;;;;;;5091691;28;20044;-77
2021/05/09 00:45:53;;;;;;;6.30;5.70;;;12.40;99.90;;;;;;5092172;28;20051;-76
2021/05/09 00:48:19;;;;;;;6.00;5.55;;;12.40;99.90;;;;;;5091938;28;20020;-76
2021/05/09 00:50:45;;;;;;;14.50;6.70;;;12.40;99.90;;;;;;5091769;28;20417;-76
2021/05/09 00:53:13;;;;;;;7.78;5.30;;;12.30;99.90;;;;;;5091837;28;20069;-76
2021/05/09 00:55:40;;;;;;;5.90;5.32;;;12.30;99.90;;;;;;5092127;28;20040;-76
2021/05/09 00:58:07;;;;;;;7.25;5.45;;;12.30;99.90;;;;;;5091520;28;20353;-77
2021/05/09 01:00:33;;;;;;;8.23;6.20;;;12.30;99.90;;;;;;5092491;28;20024;-77
2021/05/09 01:03:02;;;;;;;10.35;5.43;;;12.20;99.90;;;;;;5074387;28;20051;-77
2021/05/09 01:05:28;;;;;;;6.97;5.20;;;12.20;99.90;;;;;;5090425;28;20024;-75
2021/05/09 01:07:54;;;;;;;6.50;5.90;;;12.20;99.90;;;;;;5091122;28;20027;-77
2021/05/09 01:10:20;;;;;;;6.38;5.65;;;12.10;99.90;;;;;;5091041;28;20134;-77
2021/05/09 01:12:46;;;;;;;10.32;5.68;;;12.10;99.90;;;;;;5090560;28;20107;-78
2021/05/09 01:15:12;;;;;;;6.88;5.15;;;12.00;99.90;;;;;;5090630;28;20036;-76
2021/05/09 01:17:38;;;;;;;6.45;5.40;;;12.00;99.90;;;;;;5091078;28;20020;-75
2021/05/09 01:20:13;;;;;;;5.95;5.32;;;12.00;99.90;;;;;;5090254;28;20035;-76
2021/05/09 01:22:38;;;;;;;11.15;5.82;;;12.00;99.90;;;;;;5077188;28;20035;-76
2021/05/09 01:25:06;;;;;;;7.85;5.45;;;11.90;99.90;;;;;;5090586;28;20024;-76
2021/05/09 01:27:32;;;;;;;9.05;5.15;;;12.00;99.90;;;;;;5094348;28;20020;-76
2021/05/09 01:29:57;;;;;;;7.13;4.90;;;11.90;99.90;;;;;;5095768;28;20017;-76
2021/05/09 01:32:23;;;;;;;7.40;4.88;;;11.90;99.90;;;;;;5094501;28;20066;-76
2021/05/09 01:34:48;;;;;;;6.60;4.63;;;11.90;99.90;;;;;;5094930;28;20081;-77
2021/05/09 01:37:14;;;;;;;10.15;5.78;;;11.90;99.90;;;;;;5094919;28;20020;-77
2021/05/09 01:39:40;;;;;;;5.32;4.80;;;11.90;99.90;;;;;;5094685;28;20024;-75
2021/05/09 01:42:05;;;;;;;5.85;4.75;;;11.80;99.90;;;;;;5095314;28;20376;-76
2021/05/09 01:44:31;;;;;;;8.63;5.18;;;11.80;99.90;;;;;;5094983;28;20024;-78
2021/05/09 01:46:57;;;;;;;6.32;5.22;;;11.90;99.90;;;;;;5095009;28;20051;-78
2021/05/09 01:49:22;;;;;;;7.65;4.90;;;11.80;99.90;;;;;;5094746;28;20397;-77
2021/05/09 01:51:49;;;;;;;11.20;5.20;;;11.80;99.90;;;;;;5095241;28;20077;-77
2021/05/09 01:54:14;;;;;;;7.20;6.13;;;11.80;99.90;;;;;;5094319;28;20031;-78
2021/05/09 01:56:40;;;;;;;7.75;5.35;;;11.80;99.90;;;;;;5095038;28;20024;-78
2021/05/09 01:59:07;;;;;;;7.93;5.80;;;11.80;99.90;;;;;;5102128;28;20016;-76
2021/05/09 02:01:34;;;;;;;7.38;5.55;;;11.80;99.90;;;;;;5097967;28;20023;-76
2021/05/09 02:03:59;;;;;;;8.43;5.68;;;11.70;99.90;;;;;;5094945;28;20061;-76
2021/05/09 02:06:25;;;;;;;6.97;5.35;;;11.40;99.90;;;;;;5094462;28;20020;-76
2021/05/09 02:08:50;;;;;;;7.50;5.75;;;11.70;99.90;;;;;;5100059;28;20035;-76
2021/05/09 02:11:19;;;;;;;6.97;5.95;;;11.70;99.90;;;;;;5098356;28;20545;-76
2021/05/09 02:13:44;;;;;;;9.77;6.68;;;11.60;99.90;;;;;;5089943;28;20073;-77
2021/05/09 02:16:11;;;;;;;6.43;5.90;;;11.60;99.90;;;;;;5098323;28;20476;-76
2021/05/09 02:18:37;;;;;;;7.05;5.35;;;11.60;99.90;;;;;;5094679;28;20020;-76
2021/05/09 02:21:03;;;;;;;7.40;6.60;;;11.60;99.90;;;;;;5094434;28;20024;-76
2021/05/09 02:23:28;;;;;;;6.35;5.43;;;11.60;99.90;;;;;;5093475;28;20495;-77
2021/05/09 02:25:54;;;;;;;7.63;6.03;;;11.60;99.90;;;;;;5094991;28;20021;-76
2021/05/09 02:28:20;;;;;;;6.60;5.97;;;11.50;99.90;;;;;;5093792;28;20020;-76
2021/05/09 02:30:45;;;;;;;8.93;6.57;;;11.60;99.90;;;;;;5094290;28;20065;-76
2021/05/09 02:33:14;;;;;;;8.63;5.82;;;11.50;99.90;;;;;;5094693;28;20464;-76
2021/05/09 02:35:39;;;;;;;10.40;6.57;;;11.50;99.90;;;;;;5093743;28;20457;-76
2021/05/09 02:38:05;;;;;;;7.80;5.78;;;11.50;99.90;;;;;;5093900;28;20371;-76
2021/05/09 02:40:31;;;;;;;6.65;6.07;;;11.50;99.90;;;;;;5094395;28;20119;-76
2021/05/09 02:42:57;;;;;;;8.13;6.10;;;11.40;99.90;;;;;;5093939;28;20061;-76
2021/05/09 02:45:22;;;;;;;11.07;6.45;;;11.40;99.90;;;;;;5093534;28;20024;-77
2021/05/09 02:47:48;;;;;;;9.55;6.68;;;11.40;99.90;;;;;;5094144;28;20028;-77
2021/05/09 02:50:14;;;;;;;9.75;6.25;;;12.30;99.90;;;;;;5093428;28;20445;-76
2021/05/09 02:52:40;;;;;;;9.10;6.18;;;11.40;99.90;;;;;;5093603;28;20077;-75
2021/05/09 02:55:06;;;;;;;8.73;5.35;;;11.30;99.90;;;;;;5094545;28;20044;-76
2021/05/09 02:57:32;;;;;;;9.13;6.35;;;11.40;99.90;;;;;;5093293;28;20032;-76
2021/05/09 02:59:58;;;;;;;8.93;6.18;;;11.30;99.90;;;;;;5093859;28;20103;-76
2021/05/09 03:02:23;;;;;;;7.75;5.72;;;11.30;99.90;;;;;;5093819;28;20035;-77
2021/05/09 03:04:49;;;;;;;8.13;5.60;;;11.40;99.90;;;;;;5093251;28;20484;-76
2021/05/09 03:07:15;;;;;;;7.93;5.97;;;11.30;99.90;;;;;;5093932;28;20020;-76
2021/05/09 03:09:40;;;;;;;9.82;5.53;;;11.20;99.90;;;;;;5094074;28;20016;-76
2021/05/09 03:12:07;;;;;;;7.90;5.63;;;11.30;99.90;;;;;;5093190;28;20031;-76
2021/05/09 03:14:32;;;;;;;6.35;5.40;;;11.30;99.90;;;;;;5092812;28;20446;-76
2021/05/09 03:16:58;;;;;;;9.75;5.75;;;11.30;99.90;;;;;;5093453;28;20099;-76
2021/05/09 03:19:23;;;;;;;10.68;5.60;;;11.20;99.90;;;;;;5092598;28;20114;-76
2021/05/09 03:21:49;;;;;;;10.45;6.40;;;11.20;99.90;;;;;;5093039;28;20107;-76
2021/05/09 03:24:14;;;;;;;7.72;5.68;;;11.30;99.90;;;;;;5093456;28;20024;-77
2021/05/09 03:26:40;;;;;;;5.93;5.43;;;11.20;99.90;;;;;;5093060;28;20116;-77
2021/05/09 03:29:07;;;;;;;8.82;5.78;;;11.30;99.90;;;;;;5093447;28;20020;-77
2021/05/09 03:31:33;;;;;;;10.35;5.57;;;11.30;99.90;;;;;;5093180;28;20721;-77
2021/05/09 03:33:58;;;;;;;5.97;5.28;;;11.30;99.90;;;;;;5092237;28;20032;-77
2021/05/09 03:36:24;;;;;;;5.82;5.25;;;11.30;99.90;;;;;;5092738;28;20035;-76
2021/05/09 03:38:50;;;;;;;7.07;5.30;;;11.30;99.90;;;;;;5092851;28;20017;-77
2021/05/09 03:41:16;;;;;;;6.10;4.95;;;11.30;99.90;;;;;;5092579;28;20073;-77
2021/05/09 03:43:42;;;;;;;5.82;5.22;;;11.30;99.90;;;;;;5092949;28;20024;-77
2021/05/09 03:46:07;;;;;;;7.45;5.30;;;11.20;99.90;;;;;;5092363;28;20047;-77
2021/05/09 03:48:33;;;;;;;9.10;4.82;;;11.30;99.90;;;;;;5091962;28;20024;-77
2021/05/09 03:51:02;;;;;;;10.48;5.68;;;11.20;99.90;;;;;;5092848;28;20031;-76
2021/05/09 03:53:30;;;;;;;11.60;5.53;;;11.30;99.90;;;;;;5092737;28;20023;-77
2021/05/09 03:55:55;;;;;;;8.18;5.40;;;11.30;99.90;;;;;;5092886;28;20115;-77
2021/05/09 03:58:21;;;;;;;6.97;5.40;;;11.30;99.90;;;;;;5092764;28;20428;-77
2021/05/09 04:00:47;;;;;;;5.65;5.15;;;11.30;99.90;;;;;;5095458;28;20032;-78
2021/05/09 04:03:26;;;;;;;6.90;6.20;;;11.30;99.90;;;;;;5094540;28;20017;-77
2021/05/09 04:05:53;;;;;;;5.82;5.13;;;11.30;99.90;;;;;;5092920;28;20024;-77
2021/05/09 04:08:23;;;;;;;6.80;5.78;;;11.40;99.90;;;;;;5093075;28;20020;-77
2021/05/09 04:10:55;;;;;;;9.23;5.45;;;11.40;99.90;;;;;;5100886;28;20115;-76
2021/05/09 04:13:22;;;;;;;6.13;5.30;;;11.50;99.90;;;;;;5096552;28;20121;-77
2021/05/09 04:15:48;;;;;;;7.75;5.22;;;11.50;99.90;;;;;;5104282;28;20028;-76
2021/05/09 04:18:14;;;;;;;5.53;4.88;;;11.50;99.90;;;;;;5092582;28;20045;-77
2021/05/09 04:20:40;;;;;;;9.18;5.55;;;11.60;99.90;;;;;;5092690;28;20022;-76
2021/05/09 04:23:13;;;;;;;6.18;4.65;;;11.60;99.90;;;;;;5092015;28;20024;-77
2021/05/09 04:25:40;;;;;;;5.63;5.10;;;11.60;99.90;;;;;;5078572;28;20035;-77
2021/05/09 04:28:06;;;;;;;5.40;4.90;;;11.70;99.90;;;;;;5091904;28;20030;-77
2021/05/09 04:30:33;;;;;;;5.68;5.18;;;11.70;99.90;;;;;;5091630;28;20075;-77
2021/05/09 04:33:01;;;;;;;5.85;5.25;;;11.70;99.90;;;;;;5092128;28;20441;-77
2021/05/09 04:35:26;;;;;;;10.10;5.43;;;11.70;99.90;;;;;;5091320;28;20484;-77
2021/05/09 04:37:52;;;;;;;7.72;5.50;;;11.80;99.90;;;;;;5091787;28;20026;-77
2021/05/09 04:40:18;;;;;;;8.82;5.32;;;11.80;99.90;;;;;;5091848;28;20036;-77
2021/05/09 04:42:46;;;;;;;10.48;5.57;;;11.90;99.90;;;;;;5091483;28;20031;-78
2021/05/09 04:45:12;;;;;;;6.80;5.00;;;11.90;99.90;;;;;;5092202;28;20107;-77
2021/05/09 04:47:38;;;;;;;7.50;5.65;;;12.00;99.90;;;;;;5092242;28;20024;-78
2021/05/09 04:50:08;;;;;;;9.88;6.35;;;12.00;99.90;;;;;;5091884;28;20028;-78
2021/05/09 04:52:33;;;;;;;7.72;5.90;;;12.10;99.90;;;;;;5091891;28;20547;-78
2021/05/09 04:54:59;;;;;;;8.60;6.15;;;12.20;99.90;;;;;;5091975;28;20111;-79
2021/05/09 04:57:24;;;;;;;9.50;5.45;;;12.20;99.90;;;;;;5091055;28;20055;-78
2021/05/09 04:59:50;;;;;;;14.30;5.80;;;12.30;99.90;;;;;;5092435;28;20020;-78
2021/05/09 05:02:15;;;;;;;7.60;5.07;;;12.40;99.90;;;;;;5096069;28;20384;-78
2021/05/09 05:04:42;;;;;;;7.60;6.65;;;12.40;99.90;;;;;;5095492;28;20035;-78
2021/05/09 05:07:08;;;;;;;8.10;6.18;;;12.40;99.90;;;;;;5096130;28;20024;-79
2021/05/09 05:09:33;;;;;;;8.20;6.30;;;12.50;99.90;;;;;;5095955;28;20020;-78
2021/05/09 05:11:59;;;;;;;8.27;6.50;;;12.50;99.90;;;;;;5095071;28;20476;-78
2021/05/09 05:14:24;;;;;;;8.02;5.90;;;12.50;99.90;;;;;;5095545;28;20052;-78
2021/05/09 05:16:50;;;;;;;8.38;6.25;;;12.60;99.90;;;;;;5095981;28;20494;-77
2021/05/09 05:19:15;;;;;;;7.57;5.82;;;12.60;99.90;;;;;;5095049;28;20028;-78
2021/05/09 05:21:41;;;;;;;6.13;5.57;;;12.70;99.90;;;;;;5095348;28;20032;-76
2021/05/09 05:24:08;;;;;;;11.88;6.07;;;12.80;99.90;;;;;;5095915;28;20484;-77
2021/05/09 05:26:34;;;;;;;10.13;6.50;;;12.80;99.90;;;;;;5094596;28;20036;-77
2021/05/09 05:29:00;;;;;;;5.47;4.93;;;12.80;99.90;;;;;;5076756;28;20023;-77
2021/05/09 05:31:25;;;;;;;7.25;5.82;;;12.90;99.90;;;;;;5092115;28;20093;-79
2021/05/09 05:33:51;;;;;;;8.38;6.72;;;13.00;99.90;;;;;;5094890;28;20107;-78
2021/05/09 05:36:17;;;;;;;9.90;5.85;;;13.00;99.90;;;;;;5094720;28;20484;-77
2021/05/09 05:38:42;;;;;;;6.47;5.78;;;13.10;99.90;;;;;;5095287;28;20419;-76
2021/05/09 05:41:09;;;;;;;8.25;5.95;;;13.20;99.90;;;;;;5094486;28;20067;-76
2021/05/09 05:43:34;;;;;;;6.43;5.47;;;13.20;99.90;;;;;;5094631;28;20093;-79
2021/05/09 05:46:01;;;;;;;6.05;5.45;;;13.40;99.90;;;;;;5094455;28;20436;-79
2021/05/09 05:48:30;;;;;;;7.15;5.40;;;13.40;99.90;;;;;;5091937;28;20044;-78
2021/05/09 05:50:56;;;;;;;11.38;5.97;;;13.50;99.90;;;;;;5094710;28;20103;-79
2021/05/09 05:53:24;;;;;;;6.38;5.57;;;13.60;99.90;;;;;;5094046;28;20024;-78
2021/05/09 05:55:51;;;;;;;8.40;5.25;;;13.60;99.90;;;;;;5094292;28;20028;-78
2021/05/09 05:58:18;;;;;;;8.32;5.53;;;13.70;99.90;;;;;;5094577;28;20016;-78
2021/05/09 06:00:44;;;;;;;6.40;5.07;;;13.80;99.90;;;;;;5093890;28;20026;-78
2021/05/09 06:03:10;;;;;;;8.40;5.53;;;13.80;99.90;;;;;;5101523;28;20032;-78
2021/05/09 06:05:36;;;;;;;5.65;5.15;;;13.80;99.90;;;;;;5096350;28;20024;-77
2021/05/09 06:08:02;;;;;;;6.85;6.18;;;13.80;99.90;;;;;;5094045;28;20058;-77
2021/05/09 06:10:27;;;;;;;8.27;6.03;;;13.90;99.90;;;;;;5087575;28;20039;-77
2021/05/09 06:12:54;;;;;;;6.15;5.65;;;14.00;99.90;;;;;;5099978;28;20048;-78
2021/05/09 06:15:20;;;;;;;6.05;5.40;;;13.90;99.90;;;;;;5094676;28;20098;-77
2021/05/09 06:17:45;;;;;;;5.55;5.00;;;14.00;99.90;;;;;;5100624;28;20017;-78
2021/05/09 06:20:12;;;;;;;6.40;5.28;;;14.00;99.90;;;;;;5095609;28;20016;-79
2021/05/09 06:22:37;;;;;;;6.65;5.10;;;14.00;99.90;;;;;;5092364;28;20116;-78
2021/05/09 06:25:04;;;;;;;7.20;5.35;;;14.10;99.90;;;;;;5091987;28;20474;-77
2021/05/09 06:27:30;;;;;;;11.02;5.78;;;14.20;99.90;;;;;;5091053;28;20048;-78
2021/05/09 06:30:03;;;;;;;6.43;5.82;;;14.20;99.90;;;;;;5092073;28;20104;-77
2021/05/09 06:32:29;;;;;;;12.52;5.82;;;14.30;99.90;;;;;;5091381;28;20366;-77
2021/05/09 06:34:54;;;;;;;7.18;5.50;;;14.30;99.90;;;;;;5091594;28;20416;-78
2021/05/09 06:37:20;;;;;;;6.25;5.38;;;14.30;99.90;;;;;;5090989;28;20024;-77
2021/05/09 06:39:46;;;;;;;8.07;5.32;;;14.40;99.90;;;;;;5089015;28;20025;-78
2021/05/09 06:42:12;;;;;;;6.18;5.45;;;14.40;99.90;;;;;;5091610;28;20036;-77
2021/05/09 06:44:45;;;;;;;6.70;5.47;;;14.40;99.90;;;;;;5091993;28;20353;-79
2021/05/09 06:47:11;;;;;;;6.18;5.45;;;14.60;99.90;;;;;;5092348;28;20471;-78
2021/05/09 06:49:36;;;;;;;6.97;5.60;;;14.70;99.90;;;;;;5091177;28;20070;-78
2021/05/09 06:52:02;;;;;;;7.85;5.65;;;14.80;99.90;;;;;;5091479;28;20016;-77
2021/05/09 06:54:30;;;;;;;8.60;5.40;;;14.90;99.90;;;;;;5091260;28;20024;-77
2021/05/09 06:56:55;;;;;;;6.07;5.07;;;14.90;99.90;;;;;;5091057;28;20472;-77
2021/05/09 06:59:21;;;;;;;6.47;5.88;;;15.00;99.90;;;;;;5091685;28;20081;-76
2021/05/09 07:01:46;;;;;;;5.95;5.43;;;15.10;99.90;;;;;;5091004;28;20024;-77
2021/05/09 07:04:12;;;;;;;7.43;5.80;;;15.20;99.90;;;;;;5072948;28;20020;-79
2021/05/09 07:06:38;;;;;;;5.47;4.93;;;15.20;99.90;;;;;;5091468;28;20047;-79
2021/05/09 07:09:06;;;;;;;7.00;5.53;;;15.30;99.90;;;;;;5090568;28;20043;-80
2021/05/09 07:11:33;;;;;;;6.07;5.47;;;15.40;99.90;;;;;;5088371;28;20047;-79
2021/05/09 07:13:58;;;;;;;5.47;4.97;;;15.50;99.90;;;;;;5091614;28;20048;-77
2021/05/09 07:16:25;;;;;;;8.15;5.10;;;15.70;99.90;;;;;;5088674;28;20040;-77
2021/05/09 07:18:51;;;;;;;5.13;4.70;;;15.80;99.90;;;;;;5090136;28;20031;-78
2021/05/09 07:21:22;;;;;;;6.65;4.85;;;15.90;99.90;;;;;;5090774;28;20472;-78
2021/05/09 07:23:48;;;;;;;6.03;4.97;;;16.10;99.90;;;;;;5088876;28;20203;-78
2021/05/09 07:26:17;;;;;;;8.23;4.05;;;16.30;99.90;;;;;;5089681;28;20028;-78
2021/05/09 07:28:43;;;;;;;9.35;4.30;;;16.50;99.90;;;;;;5092290;28;20027;-77
2021/05/09 07:31:09;;;;;;;4.85;3.83;;;16.70;99.90;;;;;;5090923;28;20388;-78
2021/05/09 07:33:34;;;;;;;7.88;3.47;;;17.00;99.90;;;;;;5089746;28;20032;-77
2021/05/09 07:36:00;;;;;;;3.78;3.47;;;17.30;99.90;;;;;;5092218;28;20040;-78
2021/05/09 07:38:26;;;;;;;6.30;4.05;;;17.60;99.90;;;;;;5090449;28;20024;-78
2021/05/09 07:40:52;;;;;;;4.93;3.28;;;17.90;99.90;;;;;;5091942;28;20038;-77
2021/05/09 07:43:18;;;;;;;7.95;3.10;;;18.00;99.90;;;;;;5091486;28;20027;-77
2021/05/09 07:45:45;;;;;;;3.45;3.15;;;18.20;99.90;;;;;;5089754;28;20028;-77
2021/05/09 07:48:11;;;;;;;3.80;3.45;;;18.20;99.90;;;;;;5090999;28;20030;-79
2021/05/09 07:50:37;;;;;;;5.85;3.00;;;18.20;99.90;;;;;;5090982;28;20024;-77
2021/05/09 07:53:04;;;;;;;3.22;2.85;;;18.20;99.90;;;;;;5090403;28;20036;-78
2021/05/09 07:55:30;;;;;;;4.50;2.63;;;18.30;99.90;;;;;;5088469;28;20112;-79
2021/05/09 07:57:56;;;;;;;2.95;2.63;;;18.20;99.90;;;;;;5091538;28;20468;-78
2021/05/09 08:00:22;;;;;;;4.30;2.75;;;18.30;99.90;;;;;;5090646;28;20028;-79
2021/05/09 08:02:49;;;;;;;3.88;2.75;;;18.30;99.90;;;;;;5092632;28;20016;-79
2021/05/09 08:05:20;;;;;;;5.07;2.90;;;18.20;99.90;;;;;;5096921;28;20035;-79
2021/05/09 08:07:54;;;;;;;3.22;2.92;;;18.40;99.90;;;;;;5097445;28;20020;-78
2021/05/09 08:10:22;;;;;;;3.72;2.72;;;18.50;99.90;;;;;;5091073;28;20067;-76
2021/05/09 08:12:48;;;;;;;3.63;2.70;;;18.60;99.90;;;;;;5091882;28;20414;-81
2021/05/09 08:15:15;;;;;;;3.67;3.00;;;18.70;99.90;;;;;;5099155;28;20043;-77
2021/05/09 08:17:40;;;;;;;3.95;3.03;;;18.60;99.90;;;;;;5095425;28;20016;-80
2021/05/09 08:20:07;;;;;;;4.00;3.53;;;18.60;99.90;;;;;;5099614;28;20043;-78
2021/05/09 08:22:33;;;;;;;6.45;3.30;;;18.70;99.90;;;;;;5097951;28;20149;-77
2021/05/09 08:24:59;;;;;;;8.90;3.10;;;18.80;99.90;;;;;;5094067;28;20443;-80
2021/05/09 08:27:32;;;;;;;4.35;3.30;;;18.90;99.90;;;;;;5095577;28;20030;-80
2021/05/09 08:29:58;;;;;;;3.17;2.88;;;19.00;99.90;;;;;;5088194;28;20068;-78
2021/05/09 08:32:24;;;;;;;3.50;2.70;;;19.10;99.90;;;;;;5091520;28;20063;-78
2021/05/09 08:34:50;;;;;;;7.40;3.20;;;19.20;99.90;;;;;;5090913;28;20488;-81
2021/05/09 08:37:16;;;;;;;4.07;3.08;;;19.30;99.90;;;;;;5094232;28;20124;-79
2021/05/09 08:39:47;;;;;;;3.15;2.83;;;19.30;99.90;;;;;;5091221;28;20069;-77
2021/05/09 08:42:18;;;;;;;5.20;3.58;;;19.30;99.90;;;;;;5090856;28;20035;-76
2021/05/09 08:44:48;;;;;;;8.38;3.47;;;19.40;99.90;;;;;;5090510;28;20039;-76
2021/05/09 08:47:21;;;;;;;4.75;3.90;;;19.40;99.90;;;;;;5090518;28;20036;-77
2021/05/09 08:49:51;;;;;;;5.97;3.88;;;19.50;99.90;;;;;;5089965;28;20039;-77
2021/05/09 08:52:18;;;;;;;3.88;3.30;;;19.40;99.90;;;;;;5090160;28;20030;-77
2021/05/09 08:54:45;;;;;;;8.13;3.63;;;19.40;99.90;;;;;;5090698;28;20449;-77
2021/05/09 08:57:12;;;;;;;4.45;4.15;;;19.30;99.90;;;;;;5089778;28;20110;-77
2021/05/09 08:59:37;;;;;;;3.58;3.20;;;19.40;99.90;;;;;;5089998;28;20027;-76
2021/05/09 09:02:04;;;;;;;3.88;3.58;;;19.30;99.90;;;;;;5090340;28;20028;-77
2021/05/09 09:04:46;;;;;;;3.67;3.38;;;19.40;99.90;;;;;;5089031;28;20027;-78
2021/05/09 09:07:13;;;;;;;5.15;3.30;;;19.60;99.90;;;;;;5089473;28;20028;-78
2021/05/09 09:09:43;;;;;;;4.00;3.60;;;19.70;99.90;;;;;;5090062;28;20024;-77
2021/05/09 09:12:10;;;;;;;6.22;3.60;;;19.90;99.90;;;;;;5089566;28;20161;-77
2021/05/09 09:14:50;;;;;;;5.55;3.72;;;20.10;99.90;;;;;;5088260;28;20044;-78
2021/05/09 09:17:17;;;;;;;4.30;3.55;;;20.30;99.90;;;;;;5088811;28;20039;-77
2021/05/09 09:20:18;;;;;;;5.43;4.53;;;20.70;99.90;;;;;;5090407;28;20154;-77
2021/05/09 09:22:49;;;;;;;4.57;3.50;;;20.90;99.90;;;;;;5091187;28;20027;-78
2021/05/09 09:25:15;;;;;;;7.13;3.85;;;21.10;99.90;;;;;;5087369;28;20023;-79
2021/05/09 09:27:45;;;;;;;5.65;4.10;;;21.10;99.90;;;;;;5090274;28;20039;-78
2021/05/09 09:30:11;;;;;;;3.70;3.23;;;21.20;99.90;;;;;;5090157;28;20060;-78
2021/05/09 09:32:37;;;;;;;3.67;3.38;;;21.20;99.90;;;;;;5089314;28;20792;-78
2021/05/09 09:35:03;;;;;;;5.70;3.83;;;21.10;99.90;;;;;;5089892;28;20036;-78
2021/05/09 09:37:33;;;;;;;4.43;3.10;;;21.10;99.90;;;;;;5088885;28;20546;-79
2021/05/09 09:40:02;;;;;;;3.95;3.65;;;21.10;99.90;;;;;;5089567;28;20047;-78
2021/05/09 09:42:45;;;;;;;4.47;3.90;;;21.10;99.90;;;;;;5085614;28;20020;-78
2021/05/09 09:45:18;;;;;;;3.55;3.10;;;21.20;99.90;;;;;;5087661;28;20075;-77
2021/05/09 09:47:48;;;;;;;3.47;3.17;;;21.20;99.90;;;;;;5089397;28;20020;-78
2021/05/09 09:50:40;;;;;;;3.60;3.30;;;21.20;99.90;;;;;;5092386;28;20031;-78
2021/05/09 09:53:25;;;;;;;4.05;2.88;;;21.30;99.90;;;;;;5092056;28;20028;-78
2021/05/09 09:56:14;;;;;;;3.97;2.30;;;21.30;99.90;;;;;;5090495;28;20044;-77
2021/05/09 09:58:52;;;;;;;2.97;2.53;;;21.40;99.90;;;;;;5091341;28;20028;-78
2021/05/09 10:01:27;;;;;;;3.00;2.70;;;21.40;99.90;;;;;;5092506;28;20012;-78
2021/05/09 10:03:55;;;;;;;4.50;3.08;;;21.40;99.90;;;;;;5093129;28;20039;-78
2021/05/09 10:06:28;;;;;;;2.70;2.50;;;21.50;99.90;;;;;;5091968;28;20564;-78
2021/05/09 10:08:56;;;;;;;3.00;2.58;;;21.60;99.90;;;;;;5089819;28;20016;-77
2021/05/09 10:11:21;;;;;;;3.33;3.03;;;21.70;99.90;;;;;;5092058;28;20028;-76
2021/05/09 10:13:48;;;;;;;3.35;2.80;;;21.70;99.90;;;;;;5092149;28;20054;-76
2021/05/09 10:16:18;;;;;;;3.20;2.85;;;21.70;99.90;;;;;;5092520;28;20032;-77
2021/05/09 10:18:46;;;;;;;3.50;3.20;;;21.70;99.90;;;;;;5091822;28;20027;-78
2021/05/09 10:21:12;;;;;;;5.03;2.70;;;21.70;99.90;;;;;;5089872;28;20040;-78
2021/05/09 10:24:12;;;;;;;3.08;2.75;;;21.80;99.90;;;;;;5092316;28;20023;-78
2021/05/09 10:26:51;;;;;;;5.65;2.95;;;21.90;99.90;;;;;;5090646;28;20020;-78
2021/05/09 10:29:36;;;;;;;6.25;3.33;;;21.80;99.90;;;;;;5091157;28;20027;-78
2021/05/09 10:32:19;;;;;;;3.67;3.38;;;21.80;99.90;;;;;;5093449;28;20471;-78
2021/05/09 10:35:00;;;;;;;3.45;2.55;;;21.70;99.90;;;;;;5093183;28;20101;-78
2021/05/09 10:37:47;;;;;;;3.92;2.55;;;21.60;99.90;;;;;;5093539;28;20032;-78
2021/05/09 10:40:26;;;;;;;5.72;3.00;;;21.40;99.90;;;;;;5084851;28;20051;-79
2021/05/09 10:43:01;;;;;;;5.85;2.90;;;21.30;99.90;;;;;;5093545;28;20074;-78
2021/05/09 10:45:51;;;;;;;5.13;3.05;;;21.20;99.90;;;;;;5093989;28;20020;-78
2021/05/09 10:50:46;;;;;;;2.95;2.75;;;21.20;99.90;;;;;;5095231;28;20032;-79
2021/05/09 10:53:40;;;;;;;5.93;3.08;;;21.30;99.90;;;;;;5094389;28;20027;-79
2021/05/09 10:56:16;;;;;;;4.90;3.10;;;21.70;99.90;;;;;;5093138;28;20414;-78
2021/05/09 10:58:50;;;;;;;2.92;2.55;;;22.10;99.90;;;;;;5081923;28;20095;-78
2021/05/09 11:01:28;;;;;;;5.18;2.95;;;22.40;99.90;;;;;;5093602;28;20107;-81
2021/05/09 11:04:00;;;;;;;2.85;2.65;;;22.50;99.90;;;;;;5093251;28;20020;-78
2021/05/09 11:06:25;;;;;;;3.10;2.70;;;22.40;99.90;;;;;;5093587;28;20507;-77
2021/05/09 11:09:12;;;;;;;3.10;2.65;;;22.20;99.90;;;;;;5093704;28;20020;-78
2021/05/09 11:11:38;;;;;;;5.43;2.85;;;22.20;99.90;;;;;;5093523;28;20032;-78
2021/05/09 11:14:05;;;;;;;2.55;2.35;;;22.30;99.90;;;;;;5090013;28;20372;-79
2021/05/09 11:16:32;;;;;;;3.13;2.35;;;22.40;99.90;;;;;;5089488;28;20395;-78
2021/05/09 11:19:01;;;;;;;4.43;2.88;;;22.10;99.90;;;;;;5088671;28;20020;-78
2021/05/09 11:21:30;;;;;;;5.68;2.78;;;22.80;99.90;;;;;;5091550;28;20069;-79
2021/05/09 11:23:57;;;;;;;4.25;2.70;;;23.00;99.90;;;;;;5090136;28;20022;-79
2021/05/09 11:26:27;;;;;;;3.10;2.78;;;23.00;99.90;;;;;;5090663;28;20020;-79
2021/05/09 11:29:11;;;;;;;;;;;23.10;99.90;;;;;;5090791;28;20074;-79
2021/05/09 11:32:05;;;;;;;3.47;3.17;;;23.00;99.90;;;;;;5091163;28;19904;-78
2021/05/09 11:34:31;;;;;;;8.88;3.00;;;23.00;99.90;;;;;;5089550;28;20647;-78
2021/05/09 11:36:58;;;;;;;3.85;3.10;;;22.80;99.90;;;;;;5091680;28;20119;-77
2021/05/09 11:39:39;;;;;;;5.50;2.85;;;22.70;99.90;;;;;;5091046;28;20027;-78
2021/05/09 11:42:09;;;;;;;10.70;3.20;;;22.50;99.90;;;;;;5091202;28;20020;-78
2021/05/09 11:44:41;;;;;;;4.35;3.28;;;22.30;99.90;;;;;;5090216;28;20396;-79
2021/05/09 11:47:15;;;;;;;7.15;4.00;;;22.00;99.90;;;;;;5090474;28;20024;-76
2021/05/09 11:49:43;;;;;;;4.25;3.20;;;21.80;99.90;;;;;;5090781;28;20039;-76
2021/05/09 11:52:20;;;;;;;4.00;3.70;;;21.60;99.90;;;;;;5088831;28;20115;-77
2021/05/09 11:55:00;;;;;;;3.38;2.90;;;21.50;99.90;;;;;;5090509;28;20066;-76
2021/05/09 11:57:27;;;;;;;4.07;2.42;;;21.40;99.90;;;;;;5091094;28;20437;-77
2021/05/09 11:59:57;;;;;;;4.10;2.83;;;21.40;99.90;;;;;;5089899;28;20028;-78
2021/05/09 12:02:39;;;;;;;3.50;3.05;;;21.50;99.90;;;;;;5089410;28;20032;-77
2021/05/09 12:05:14;;;;;;;3.83;3.10;;;21.70;99.90;;;;;;5090527;28;20492;-78
2021/05/09 12:07:48;;;;;;;7.07;3.20;;;21.80;99.90;;;;;;5092520;28;20524;-78
2021/05/09 12:10:25;;;;;;;5.13;2.85;;;22.00;99.90;;;;;;5091353;28;20028;-78
2021/05/09 12:13:06;;;;;;;3.20;2.90;;;22.20;99.90;;;;;;5091629;28;20028;-78
2021/05/09 12:15:33;;;;;;;2.92;2.63;;;22.40;99.90;;;;;;5090112;28;20072;-77
2021/05/09 12:17:59;;;;;;;3.70;2.92;;;22.50;99.90;;;;;;5087880;28;20020;-78
2021/05/09 12:20:41;;;;;;;5.57;2.72;;;22.60;99.90;;;;;;5089837;28;20424;-78
2021/05/09 12:23:09;;;;;;;2.53;2.33;;;22.50;99.90;;;;;;5091052;28;20024;-77
2021/05/09 12:25:45;;;;;;;3.47;3.03;;;22.60;99.90;;;;;;5084729;28;20028;-78
2021/05/09 12:28:19;;;;;;;3.20;2.45;;;22.70;99.90;;;;;;5082160;28;20027;-78
2021/05/09 12:30:49;;;;;;;5.47;2.95;;;22.80;99.90;;;;;;5082181;28;20093;-76
2021/05/09 12:33:31;;;;;;;3.38;2.30;;;22.90;99.90;;;;;;5087321;28;20020;-78
2021/05/09 12:35:59;;;;;;;6.85;2.40;;;22.90;99.90;;;;;;5086081;28;20042;-78
2021/05/09 12:38:31;;;;;;;2.55;2.35;;;23.10;99.90;;;;;;5087405;28;20020;-79
2021/05/09 12:41:23;;;;;;;5.20;3.00;;;23.10;99.90;;;;;;5089168;28;21383;-77
2021/05/09 12:43:50;;;;;;;2.58;2.38;;;23.40;99.90;;;;;;5087092;28;20111;-78
2021/05/09 12:46:34;;;;;;;4.43;2.72;;;23.50;99.90;;;;;;5087788;28;20111;-79
2021/05/09 12:49:10;;;;;;;3.80;2.90;;;23.60;99.90;;;;;;5090218;28;20032;-79
2021/05/09 12:51:56;;;;;;;2.70;2.50;;;23.60;99.90;;;;;;5087854;28;20025;-78
2021/05/09 12:54:39;;;;;;;4.32;2.53;;;23.70;99.90;;;;;;5082620;28;20433;-79
2021/05/09 12:57:29;;;;;;;6.35;2.65;;;23.80;99.90;;;;;;5090963;28;20062;-78